Time;durP1;ratioP1;P1;durP2;ratioP2;P2;SDS_P1;SDS_P2;PMS_P1;PMS_P2;Temp;Humidity;BMP_temperature;BMP_pressure;BME280_temperature;BME280_humidity;BME280_pressure;Samples;Min_cycle;Max_cycle;Signal;HPM_P1;HPM_P2
2024/01/11 00:00:31;;;;;;;128.65;35.42;;;;;;;;;;2034519;29;20040;-57
2024/01/11 00:01:33;;;;;;;132.27;35.78;;;;;;;;;;2034460;29;20047;-57
2024/01/11 00:02:33;;;;;;;120.28;34.45;;;;;;;;;;2034481;29;20035;-57
2024/01/11 00:03:34;;;;;;;133.15;36.60;;;;;;;;;;2034384;29;20484;-57
2024/01/11 00:04:35;;;;;;;111.60;33.50;;;;;;;;;;2034423;29;20052;-57
2024/01/11 00:05:36;;;;;;;130.43;37.00;;;;;;;;;;2034441;29;20051;-57
2024/01/11 00:06:40;;;;;;;123.97;32.50;;;;;;;;;;2034447;29;20036;-56
2024/01/11 00:07:42;;;;;;;118.50;34.05;;;;;;;;;;2034563;29;20036;-58
2024/01/11 00:08:43;;;;;;;129.82;38.67;;;;;;;;;;2034122;29;20047;-57
2024/01/11 00:09:44;;;;;;;118.30;37.47;;;;;;;;;;2034379;29;20068;-57
2024/01/11 00:10:44;;;;;;;132.68;38.88;;;;;;;;;;2034588;29;20196;-57
2024/01/11 00:11:45;;;;;;;128.20;35.38;;;;;;;;;;2034425;29;20032;-58
2024/01/11 00:12:46;;;;;;;140.98;39.08;;;;;;;;;;2025528;29;20502;-58
2024/01/11 00:13:47;;;;;;;120.45;36.58;;;;;;;;;;2026105;29;20441;-57
2024/01/11 00:14:47;;;;;;;136.52;36.53;;;;;;;;;;2034383;29;20063;-57
2024/01/11 00:15:48;;;;;;;132.63;35.17;;;;;;;;;;2034524;29;20448;-57
2024/01/11 00:16:49;;;;;;;124.53;33.55;;;;;;;;;;2034332;29;20551;-57
2024/01/11 00:17:49;;;;;;;149.30;38.78;;;;;;;;;;2034182;29;20408;-57
2024/01/11 00:18:50;;;;;;;143.23;37.40;;;;;;;;;;2034338;29;20028;-61
2024/01/11 00:19:52;;;;;;;139.65;37.35;;;;;;;;;;2034085;29;20057;-57
2024/01/11 00:20:52;;;;;;;137.60;39.80;;;;;;;;;;2034196;29;20211;-57
2024/01/11 00:21:53;;;;;;;136.75;36.25;;;;;;;;;;2033747;29;20051;-57
2024/01/11 00:22:54;;;;;;;146.13;39.72;;;;;;;;;;2034299;29;20064;-61
2024/01/11 00:23:54;;;;;;;145.63;37.80;;;;;;;;;;2033605;29;20048;-57
2024/01/11 00:24:55;;;;;;;142.13;40.17;;;;;;;;;;2034426;29;20455;-57
2024/01/11 00:25:56;;;;;;;132.52;37.75;;;;;;;;;;2025999;29;20382;-57
2024/01/11 00:26:57;;;;;;;131.52;38.95;;;;;;;;;;2025273;29;20041;-57
2024/01/11 00:27:57;;;;;;;124.80;37.63;;;;;;;;;;2025240;29;20048;-57
2024/01/11 00:28:58;;;;;;;129.50;37.67;;;;;;;;;;2025405;29;20072;-57
2024/01/11 00:29:59;;;;;;;132.68;38.63;;;;;;;;;;2034167;29;20126;-57
2024/01/11 00:31:00;;;;;;;130.05;35.30;;;;;;;;;;2033908;29;20052;-57
2024/01/11 00:32:00;;;;;;;124.50;35.40;;;;;;;;;;2034218;29;20492;-57
2024/01/11 00:33:01;;;;;;;128.80;37.60;;;;;;;;;;2034290;29;20078;-57
2024/01/11 00:34:03;;;;;;;115.70;36.22;;;;;;;;;;2033405;29;20051;-57
2024/01/11 00:35:04;;;;;;;133.10;39.72;;;;;;;;;;2033989;29;20138;-57
2024/01/11 00:36:04;;;;;;;130.30;37.25;;;;;;;;;;2034439;29;20374;-57
2024/01/11 00:37:05;;;;;;;118.80;37.38;;;;;;;;;;2034332;29;20191;-57
2024/01/11 00:38:06;;;;;;;117.25;32.17;;;;;;;;;;2033653;29;20052;-57
2024/01/11 00:39:07;;;;;;;131.48;36.53;;;;;;;;;;2034690;29;20091;-57
2024/01/11 00:40:08;;;;;;;130.25;31.75;;;;;;;;;;2034394;29;20063;-57
2024/01/11 00:41:08;;;;;;;129.68;36.35;;;;;;;;;;2034330;29;20417;-57
2024/01/11 00:42:09;;;;;;;130.98;35.33;;;;;;;;;;2034521;29;20489;-57
2024/01/11 00:43:10;;;;;;;140.43;34.35;;;;;;;;;;2033968;29;20057;-57
2024/01/11 00:44:10;;;;;;;133.45;37.20;;;;;;;;;;2033494;29;20067;-57
2024/01/11 00:45:11;;;;;;;135.77;38.35;;;;;;;;;;2034362;29;20122;-57
2024/01/11 00:46:12;;;;;;;139.82;36.00;;;;;;;;;;2033932;29;20044;-57
2024/01/11 00:47:13;;;;;;;152.93;34.20;;;;;;;;;;2034124;29;20036;-57
2024/01/11 00:48:13;;;;;;;126.97;38.00;;;;;;;;;;2034200;29;20036;-57
2024/01/11 00:49:14;;;;;;;115.60;34.38;;;;;;;;;;2034159;29;20048;-57
2024/01/11 00:50:15;;;;;;;116.95;32.42;;;;;;;;;;2034119;29;20047;-57
2024/01/11 00:51:16;;;;;;;121.43;34.60;;;;;;;;;;2026004;29;20045;-57
2024/01/11 00:52:16;;;;;;;124.30;33.50;;;;;;;;;;2025715;29;20064;-57
2024/01/11 00:53:17;;;;;;;130.25;34.28;;;;;;;;;;2034067;29;20047;-57
2024/01/11 00:54:18;;;;;;;149.98;36.58;;;;;;;;;;2034117;29;20565;-58
2024/01/11 00:55:18;;;;;;;121.40;32.00;;;;;;;;;;2034107;29;20417;-64
2024/01/11 00:56:19;;;;;;;122.90;34.00;;;;;;;;;;2025894;29;20518;-57
2024/01/11 00:57:20;;;;;;;136.13;34.53;;;;;;;;;;2017982;29;20041;-57
2024/01/11 00:58:21;;;;;;;124.97;34.55;;;;;;;;;;2025824;29;20135;-57
2024/01/11 00:59:22;;;;;;;112.95;31.05;;;;;;;;;;2034281;29;20036;-57
2024/01/11 01:00:22;;;;;;;108.57;33.75;;;;;;;;;;2026004;29;20369;-57
2024/01/11 01:01:23;;;;;;;125.43;34.88;;;;;;;;;;2025101;29;20521;-57
2024/01/11 01:02:24;;;;;;;130.35;36.83;;;;;;;;;;2034235;29;20024;-57
2024/01/11 01:03:24;;;;;;;125.78;38.55;;;;;;;;;;2034003;29;20480;-57
2024/01/11 01:04:25;;;;;;;119.72;35.58;;;;;;;;;;2033678;29;20505;-57
2024/01/11 01:05:26;;;;;;;123.60;37.30;;;;;;;;;;2034025;29;20035;-57
2024/01/11 01:06:27;;;;;;;140.30;39.30;;;;;;;;;;2034024;29;20063;-57
2024/01/11 01:07:27;;;;;;;136.75;38.92;;;;;;;;;;2034216;29;20091;-57
2024/01/11 01:08:28;;;;;;;137.50;38.97;;;;;;;;;;2033453;29;20133;-57
2024/01/11 01:09:29;;;;;;;127.18;39.03;;;;;;;;;;2025540;29;20048;-57
2024/01/11 01:10:30;;;;;;;132.63;40.20;;;;;;;;;;2025918;29;20073;-57
2024/01/11 01:11:30;;;;;;;138.98;36.80;;;;;;;;;;2034234;29;20071;-57
2024/01/11 01:12:31;;;;;;;141.15;41.13;;;;;;;;;;2034251;29;20032;-56
2024/01/11 01:13:32;;;;;;;141.98;38.47;;;;;;;;;;2034121;29;20032;-57
2024/01/11 01:14:33;;;;;;;112.03;32.28;;;;;;;;;;2035352;29;20047;-58
2024/01/11 01:15:33;;;;;;;123.43;33.75;;;;;;;;;;2035030;29;20057;-61
2024/01/11 01:16:34;;;;;;;143.35;37.45;;;;;;;;;;2034757;29;20036;-61
2024/01/11 01:17:35;;;;;;;164.55;37.08;;;;;;;;;;2034307;29;20063;-57
2024/01/11 01:18:35;;;;;;;132.85;35.17;;;;;;;;;;2035007;29;20413;-61
2024/01/11 01:19:36;;;;;;;138.73;38.10;;;;;;;;;;2034199;29;20484;-57
2024/01/11 01:20:37;;;;;;;128.00;35.55;;;;;;;;;;2025620;29;20044;-57
2024/01/11 01:21:38;;;;;;;130.52;38.95;;;;;;;;;;2025659;29;20064;-57
2024/01/11 01:22:38;;;;;;;126.65;37.05;;;;;;;;;;2033968;29;20036;-57
2024/01/11 01:23:39;;;;;;;137.38;37.95;;;;;;;;;;2033976;29;20491;-57
2024/01/11 01:24:40;;;;;;;123.07;35.45;;;;;;;;;;2034053;29;20040;-57
2024/01/11 01:25:41;;;;;;;131.68;39.95;;;;;;;;;;2025732;29;20048;-57
2024/01/11 01:26:41;;;;;;;136.30;41.45;;;;;;;;;;2025487;29;20040;-57
2024/01/11 01:27:42;;;;;;;125.97;36.88;;;;;;;;;;2033913;29;20384;-58
2024/01/11 01:28:43;;;;;;;123.03;37.83;;;;;;;;;;2033855;29;20744;-57
2024/01/11 01:29:44;;;;;;;145.23;43.10;;;;;;;;;;2033926;29;20135;-57
2024/01/11 01:30:44;;;;;;;141.13;42.45;;;;;;;;;;2033950;29;20040;-57
2024/01/11 01:31:45;;;;;;;144.70;40.65;;;;;;;;;;2033768;29;20039;-57
2024/01/11 01:32:46;;;;;;;130.73;39.72;;;;;;;;;;2033982;29;20032;-57
2024/01/11 01:33:47;;;;;;;138.43;40.47;;;;;;;;;;2034244;29;20069;-57
2024/01/11 01:34:47;;;;;;;134.70;42.58;;;;;;;;;;2033873;29;20091;-57
2024/01/11 01:35:48;;;;;;;131.85;41.10;;;;;;;;;;2033896;29;20439;-57
2024/01/11 01:36:49;;;;;;;143.52;40.10;;;;;;;;;;2024606;29;20556;-57
2024/01/11 01:37:50;;;;;;;139.65;41.53;;;;;;;;;;2025443;29;20044;-57
2024/01/11 01:38:51;;;;;;;137.25;41.15;;;;;;;;;;2033930;29;20064;-57
2024/01/11 01:39:51;;;;;;;130.60;41.13;;;;;;;;;;2025094;29;20041;-57
2024/01/11 01:40:52;;;;;;;132.60;38.60;;;;;;;;;;2025462;29;20386;-58
2024/01/11 01:41:53;;;;;;;125.53;37.65;;;;;;;;;;2033640;29;20056;-57
2024/01/11 01:42:57;;;;;;;134.55;40.13;;;;;;;;;;2033956;29;20047;-57
2024/01/11 01:43:58;;;;;;;131.30;40.40;;;;;;;;;;2033726;29;20047;-57
2024/01/11 01:44:59;;;;;;;113.72;35.55;;;;;;;;;;2033781;29;20067;-57
2024/01/11 01:45:59;;;;;;;130.45;40.80;;;;;;;;;;2032977;29;20406;-57
2024/01/11 01:47:00;;;;;;;121.97;36.72;;;;;;;;;;2033930;29;20064;-57
2024/01/11 01:48:01;;;;;;;133.77;41.65;;;;;;;;;;2025556;29;20123;-58
2024/01/11 01:49:02;;;;;;;134.27;40.65;;;;;;;;;;2018016;29;20040;-57
2024/01/11 01:50:03;;;;;;;130.60;37.28;;;;;;;;;;2025218;29;20048;-57
2024/01/11 01:51:03;;;;;;;127.22;38.80;;;;;;;;;;2017647;29;20409;-57
2024/01/11 01:52:04;;;;;;;130.20;38.92;;;;;;;;;;2025531;29;20040;-57
2024/01/11 01:53:05;;;;;;;134.50;42.17;;;;;;;;;;2033513;29;20040;-57
2024/01/11 01:54:06;;;;;;;146.27;42.30;;;;;;;;;;2025606;29;20037;-57
2024/01/11 01:55:06;;;;;;;155.35;44.50;;;;;;;;;;2025497;29;20033;-58
2024/01/11 01:56:07;;;;;;;143.98;42.65;;;;;;;;;;2025528;29;20045;-57
2024/01/11 01:57:08;;;;;;;150.85;40.88;;;;;;;;;;2025532;29;20402;-57
2024/01/11 01:58:09;;;;;;;145.20;42.67;;;;;;;;;;2025604;29;20073;-57
2024/01/11 01:59:10;;;;;;;148.15;44.45;;;;;;;;;;2025117;29;20072;-58
2024/01/11 02:00:12;;;;;;;150.35;41.65;;;;;;;;;;2025423;29;20048;-57
2024/01/11 02:01:13;;;;;;;141.70;40.45;;;;;;;;;;2025399;29;20406;-56
2024/01/11 02:02:14;;;;;;;140.93;39.67;;;;;;;;;;2024940;29;20545;-57
2024/01/11 02:03:15;;;;;;;144.95;42.30;;;;;;;;;;2025466;29;20097;-56
2024/01/11 02:04:16;;;;;;;155.98;45.22;;;;;;;;;;2025318;29;20048;-57
2024/01/11 02:05:17;;;;;;;155.45;45.47;;;;;;;;;;2033714;29;20067;-57
2024/01/11 02:06:18;;;;;;;139.40;43.55;;;;;;;;;;2033660;29;20036;-57
2024/01/11 02:07:18;;;;;;;142.73;43.17;;;;;;;;;;2033856;29;20072;-57
2024/01/11 02:08:19;;;;;;;143.68;43.25;;;;;;;;;;2032726;29;20074;-57
2024/01/11 02:09:20;;;;;;;136.85;42.45;;;;;;;;;;2033616;29;20137;-57
2024/01/11 02:10:21;;;;;;;131.63;41.45;;;;;;;;;;2034050;29;20421;-57
2024/01/11 02:11:23;;;;;;;145.35;45.83;;;;;;;;;;2025339;29;20031;-57
2024/01/11 02:12:23;;;;;;;140.20;41.42;;;;;;;;;;2025517;29;20036;-57
2024/01/11 02:13:24;;;;;;;146.60;42.28;;;;;;;;;;2032638;29;20044;-57
2024/01/11 02:14:25;;;;;;;128.63;41.63;;;;;;;;;;2033835;29;20123;-57
2024/01/11 02:15:26;;;;;;;150.73;43.90;;;;;;;;;;2033685;29;20047;-57
2024/01/11 02:16:27;;;;;;;138.32;42.10;;;;;;;;;;2033738;29;20065;-57
2024/01/11 02:17:27;;;;;;;149.45;46.10;;;;;;;;;;2033280;29;20056;-57
2024/01/11 02:18:28;;;;;;;142.20;44.22;;;;;;;;;;2033643;29;20118;-57
2024/01/11 02:19:29;;;;;;;143.25;45.20;;;;;;;;;;2025095;29;20059;-57
2024/01/11 02:20:30;;;;;;;138.63;44.08;;;;;;;;;;2025076;29;20044;-57
2024/01/11 02:21:30;;;;;;;135.73;43.25;;;;;;;;;;2024580;29;20076;-57
2024/01/11 02:22:35;;;;;;;137.55;45.55;;;;;;;;;;2016892;29;20085;-61
2024/01/11 02:23:36;;;;;;;137.10;46.05;;;;;;;;;;2017560;29;20445;-57
2024/01/11 02:24:37;;;;;;;134.95;44.80;;;;;;;;;;2024739;29;20037;-57
2024/01/11 02:25:37;;;;;;;137.30;44.33;;;;;;;;;;2024943;29;20469;-58
2024/01/11 02:26:57;;;;;;;136.48;45.85;;;;;;;;;;2024653;29;20048;-57
2024/01/11 02:27:57;;;;;;;137.45;41.88;;;;;;;;;;2033140;29;20047;-57
2024/01/11 02:28:58;;;;;;;133.63;42.47;;;;;;;;;;2033746;29;20060;-57
2024/01/11 02:29:59;;;;;;;145.50;43.67;;;;;;;;;;2033719;29;20385;-57
2024/01/11 02:30:59;;;;;;;133.73;44.20;;;;;;;;;;2032887;29;20079;-57
2024/01/11 02:32:01;;;;;;;138.77;42.60;;;;;;;;;;2025376;29;20044;-57
2024/01/11 02:33:02;;;;;;;141.35;45.38;;;;;;;;;;2025449;29;20041;-57
2024/01/11 02:34:02;;;;;;;145.50;43.00;;;;;;;;;;2025390;29;20501;-58
2024/01/11 02:35:03;;;;;;;139.43;44.25;;;;;;;;;;2017494;29;20037;-57
2024/01/11 02:36:04;;;;;;;144.57;44.72;;;;;;;;;;2024751;29;20063;-57
2024/01/11 02:37:05;;;;;;;131.55;41.55;;;;;;;;;;2033610;29;20056;-57
2024/01/11 02:38:06;;;;;;;141.63;42.78;;;;;;;;;;2033523;29;20044;-57
2024/01/11 02:39:07;;;;;;;151.23;45.33;;;;;;;;;;2033832;29;20032;-57
2024/01/11 02:40:08;;;;;;;136.57;42.45;;;;;;;;;;2033540;29;20040;-57
2024/01/11 02:41:08;;;;;;;142.73;43.40;;;;;;;;;;2033588;29;20043;-57
2024/01/11 02:42:09;;;;;;;154.07;47.28;;;;;;;;;;2033686;29;20040;-57
2024/01/11 02:43:10;;;;;;;141.98;41.10;;;;;;;;;;2033539;29;20120;-57
2024/01/11 02:44:11;;;;;;;144.07;45.33;;;;;;;;;;2033592;29;20449;-57
2024/01/11 02:45:14;;;;;;;143.32;43.92;;;;;;;;;;2033774;29;20521;-57
2024/01/11 02:46:15;;;;;;;142.02;43.22;;;;;;;;;;2033620;29;20051;-57
2024/01/11 02:47:16;;;;;;;134.95;43.85;;;;;;;;;;2033711;29;20031;-57
2024/01/11 02:48:17;;;;;;;143.18;43.95;;;;;;;;;;2033646;29;20036;-57
2024/01/11 02:49:17;;;;;;;144.57;45.88;;;;;;;;;;2033514;29;20084;-57
2024/01/11 02:50:18;;;;;;;143.35;45.67;;;;;;;;;;2032713;29;20064;-57
2024/01/11 02:51:19;;;;;;;145.82;43.08;;;;;;;;;;2033379;29;20044;-57
2024/01/11 02:52:20;;;;;;;145.15;45.60;;;;;;;;;;2032983;29;20040;-58
2024/01/11 02:53:20;;;;;;;144.00;42.03;;;;;;;;;;2034426;29;20048;-58
2024/01/11 02:54:21;;;;;;;158.95;47.10;;;;;;;;;;2035204;29;20036;-57
2024/01/11 02:55:22;;;;;;;180.95;47.10;;;;;;;;;;2035006;29;20090;-57
2024/01/11 02:56:23;;;;;;;149.40;45.55;;;;;;;;;;2034892;29;20060;-61
2024/01/11 02:57:24;;;;;;;173.40;44.70;;;;;;;;;;2035130;29;20488;-57
2024/01/11 02:58:25;;;;;;;172.20;48.13;;;;;;;;;;2034962;29;20063;-57
2024/01/11 02:59:25;;;;;;;148.07;45.38;;;;;;;;;;2035057;29;20048;-57
2024/01/11 03:00:26;;;;;;;148.35;45.97;;;;;;;;;;2035120;29;20059;-57
2024/01/11 03:01:27;;;;;;;156.30;46.88;;;;;;;;;;2034112;29;20055;-57
2024/01/11 03:02:28;;;;;;;150.80;45.00;;;;;;;;;;2034091;29;20040;-57
2024/01/11 03:03:28;;;;;;;144.05;44.17;;;;;;;;;;2033996;29;20055;-57
2024/01/11 03:04:29;;;;;;;142.48;47.47;;;;;;;;;;2034637;29;20068;-58
2024/01/11 03:05:30;;;;;;;145.05;45.85;;;;;;;;;;2034679;29;20032;-57
2024/01/11 03:06:30;;;;;;;146.70;46.78;;;;;;;;;;2034765;29;20102;-57
2024/01/11 03:07:32;;;;;;;140.35;45.90;;;;;;;;;;2035223;29;20350;-57
2024/01/11 03:08:33;;;;;;;139.38;42.75;;;;;;;;;;2034038;29;20043;-57
2024/01/11 03:09:34;;;;;;;144.23;45.58;;;;;;;;;;2035023;29;20397;-57
2024/01/11 03:10:37;;;;;;;136.98;45.08;;;;;;;;;;2035027;29;20036;-57
2024/01/11 03:11:38;;;;;;;139.68;45.30;;;;;;;;;;2034246;29;20396;-57
2024/01/11 03:12:39;;;;;;;139.45;44.42;;;;;;;;;;2034945;29;20037;-57
2024/01/11 03:13:40;;;;;;;127.25;44.97;;;;;;;;;;2034659;29;20046;-57
2024/01/11 03:14:40;;;;;;;162.90;42.88;;;;;;;;;;2034978;29;20055;-57
2024/01/11 03:15:41;;;;;;;129.25;42.35;;;;;;;;;;2035010;29;20036;-57
2024/01/11 03:16:42;;;;;;;161.13;44.47;;;;;;;;;;2035161;29;20457;-57
2024/01/11 03:17:43;;;;;;;140.63;42.05;;;;;;;;;;2034183;29;20055;-57
2024/01/11 03:18:43;;;;;;;150.32;46.28;;;;;;;;;;2034329;29;20068;-57
2024/01/11 03:19:44;;;;;;;158.05;47.63;;;;;;;;;;2034275;29;20075;-57
2024/01/11 03:20:45;;;;;;;159.70;42.75;;;;;;;;;;2034775;29;20052;-57
2024/01/11 03:21:48;;;;;;;150.35;48.28;;;;;;;;;;2034846;29;20088;-57
2024/01/11 03:22:49;;;;;;;141.50;43.72;;;;;;;;;;2034950;29;20495;-56
2024/01/11 03:23:50;;;;;;;137.48;44.45;;;;;;;;;;2034705;29;20080;-57
2024/01/11 03:24:50;;;;;;;135.30;43.75;;;;;;;;;;2034970;29;20083;-57
2024/01/11 03:25:51;;;;;;;158.45;47.50;;;;;;;;;;2034827;29;20075;-57
2024/01/11 03:26:52;;;;;;;149.63;44.42;;;;;;;;;;2034713;29;20063;-57
2024/01/11 03:27:53;;;;;;;151.07;44.33;;;;;;;;;;2034724;29;20032;-57
2024/01/11 03:28:53;;;;;;;154.10;47.15;;;;;;;;;;2034490;29;20078;-57
2024/01/11 03:29:54;;;;;;;147.05;44.75;;;;;;;;;;2034714;29;20084;-57
2024/01/11 03:30:55;;;;;;;147.27;45.00;;;;;;;;;;2034918;29;20409;-57
2024/01/11 03:31:55;;;;;;;164.05;49.63;;;;;;;;;;2034779;29;20059;-57
2024/01/11 03:32:56;;;;;;;150.60;44.00;;;;;;;;;;2034743;29;20032;-57
2024/01/11 03:33:57;;;;;;;152.15;43.30;;;;;;;;;;2025787;29;20087;-57
2024/01/11 03:34:58;;;;;;;151.88;45.63;;;;;;;;;;2026450;29;20039;-57
2024/01/11 03:35:58;;;;;;;156.52;45.33;;;;;;;;;;2034687;29;20032;-57
2024/01/11 03:36:59;;;;;;;164.77;47.47;;;;;;;;;;2034729;29;20088;-57
2024/01/11 03:38:00;;;;;;;141.80;43.97;;;;;;;;;;2034820;29;20040;-57
2024/01/11 03:39:01;;;;;;;145.95;46.38;;;;;;;;;;2034784;29;20099;-57
2024/01/11 03:40:02;;;;;;;144.40;45.47;;;;;;;;;;2034813;29;20032;-57
2024/01/11 03:41:09;;;;;;;158.63;48.67;;;;;;;;;;2034781;29;20028;-57
2024/01/11 03:42:10;;;;;;;141.65;45.80;;;;;;;;;;2034861;29;20036;-58
2024/01/11 03:43:11;;;;;;;157.02;46.05;;;;;;;;;;2034615;29;20405;-57
2024/01/11 03:44:11;;;;;;;140.60;44.50;;;;;;;;;;2034627;29;20481;-57
2024/01/11 03:45:12;;;;;;;153.05;47.85;;;;;;;;;;2034620;29;20099;-57
2024/01/11 03:46:13;;;;;;;163.52;46.25;;;;;;;;;;2034551;29;20521;-57
2024/01/11 03:47:14;;;;;;;163.45;48.58;;;;;;;;;;2034653;29;20063;-58
2024/01/11 03:48:14;;;;;;;163.18;47.65;;;;;;;;;;2034666;29;20389;-57
2024/01/11 03:49:15;;;;;;;208.55;45.90;;;;;;;;;;2034695;29;20492;-57
2024/01/11 03:50:16;;;;;;;165.90;46.78;;;;;;;;;;2034690;29;20040;-57
2024/01/11 03:51:16;;;;;;;159.88;46.63;;;;;;;;;;2034673;29;20051;-58
2024/01/11 03:52:17;;;;;;;175.13;46.30;;;;;;;;;;2034570;29;20024;-57
2024/01/11 03:53:18;;;;;;;163.13;48.15;;;;;;;;;;2034700;29;20059;-58
2024/01/11 03:54:19;;;;;;;147.75;45.25;;;;;;;;;;2034143;29;20106;-58
2024/01/11 03:55:20;;;;;;;163.70;49.42;;;;;;;;;;2034197;29;20067;-57
2024/01/11 03:56:21;;;;;;;162.10;47.67;;;;;;;;;;2034343;29;20048;-57
2024/01/11 03:57:22;;;;;;;159.07;48.63;;;;;;;;;;2034113;29;20068;-58
2024/01/11 03:58:22;;;;;;;149.38;47.38;;;;;;;;;;2034830;29;20054;-57
2024/01/11 03:59:23;;;;;;;157.50;45.13;;;;;;;;;;2033828;29;20441;-57
2024/01/11 04:00:24;;;;;;;165.65;46.65;;;;;;;;;;2025940;29;20482;-57
2024/01/11 04:01:24;;;;;;;156.95;48.17;;;;;;;;;;2026105;29;20084;-57
2024/01/11 04:02:25;;;;;;;160.68;49.15;;;;;;;;;;2034363;29;20404;-57
2024/01/11 04:03:26;;;;;;;164.82;49.75;;;;;;;;;;2034439;29;20488;-57
2024/01/11 04:04:27;;;;;;;165.90;48.50;;;;;;;;;;2033394;29;20045;-57
2024/01/11 04:05:27;;;;;;;177.10;48.42;;;;;;;;;;2034907;29;20082;-58
2024/01/11 04:06:28;;;;;;;162.40;46.55;;;;;;;;;;2034293;29;20044;-58
2024/01/11 04:07:29;;;;;;;162.98;48.65;;;;;;;;;;2035178;29;20488;-58
2024/01/11 04:08:29;;;;;;;157.13;49.22;;;;;;;;;;2034358;29;20036;-57
2024/01/11 04:09:30;;;;;;;160.63;48.65;;;;;;;;;;2034212;29;20076;-57
2024/01/11 04:10:31;;;;;;;162.10;46.38;;;;;;;;;;2035247;29;20043;-58
2024/01/11 04:11:32;;;;;;;152.15;42.95;;;;;;;;;;2034588;29;20028;-57
2024/01/11 04:12:32;;;;;;;173.43;44.70;;;;;;;;;;2034595;29;20119;-57
2024/01/11 04:13:33;;;;;;;169.13;48.92;;;;;;;;;;2034431;29;20028;-57
2024/01/11 04:14:37;;;;;;;169.95;46.17;;;;;;;;;;2034508;29;20070;-57
2024/01/11 04:15:38;;;;;;;170.10;43.15;;;;;;;;;;2034375;29;20380;-57
2024/01/11 04:16:42;;;;;;;169.02;45.17;;;;;;;;;;2033976;29;20044;-57
2024/01/11 04:17:42;;;;;;;182.65;46.90;;;;;;;;;;2034337;29;20079;-57
2024/01/11 04:18:43;;;;;;;187.43;51.30;;;;;;;;;;2034247;29;20500;-57
2024/01/11 04:19:44;;;;;;;157.13;47.45;;;;;;;;;;2025744;29;20044;-57
2024/01/11 04:20:44;;;;;;;161.88;47.47;;;;;;;;;;2025536;29;20048;-57
2024/01/11 04:21:45;;;;;;;207.43;51.10;;;;;;;;;;2034350;29;20485;-57
2024/01/11 04:22:46;;;;;;;182.27;47.15;;;;;;;;;;2034547;29;20040;-57
2024/01/11 04:23:47;;;;;;;205.43;50.17;;;;;;;;;;2034335;29;20056;-57
2024/01/11 04:24:47;;;;;;;154.45;44.25;;;;;;;;;;2034301;29;20036;-57
2024/01/11 04:25:48;;;;;;;169.65;46.65;;;;;;;;;;2034322;29;20078;-57
2024/01/11 04:26:49;;;;;;;153.00;45.58;;;;;;;;;;2034072;29;20071;-57
2024/01/11 04:27:49;;;;;;;175.85;48.90;;;;;;;;;;2034193;29;20036;-57
2024/01/11 04:28:51;;;;;;;170.95;43.47;;;;;;;;;;2034312;29;20059;-58
2024/01/11 04:29:51;;;;;;;176.23;44.45;;;;;;;;;;2033769;29;20059;-57
2024/01/11 04:30:52;;;;;;;171.98;48.15;;;;;;;;;;2034376;29;20167;-57
2024/01/11 04:31:53;;;;;;;194.73;52.30;;;;;;;;;;2034184;29;20064;-57
2024/01/11 04:32:54;;;;;;;169.13;45.17;;;;;;;;;;2034390;29;20060;-57
2024/01/11 04:33:54;;;;;;;169.50;47.38;;;;;;;;;;2026223;29;20067;-57
2024/01/11 04:34:55;;;;;;;151.32;46.20;;;;;;;;;;2025656;29;20048;-57
2024/01/11 04:35:56;;;;;;;199.13;49.30;;;;;;;;;;2034418;29;20084;-57
2024/01/11 04:36:56;;;;;;;179.43;47.10;;;;;;;;;;2034188;29;20056;-57
2024/01/11 04:37:57;;;;;;;161.38;47.45;;;;;;;;;;2034280;29;20392;-61
2024/01/11 04:38:58;;;;;;;156.43;46.70;;;;;;;;;;2034306;29;20473;-57
2024/01/11 04:39:59;;;;;;;174.43;52.35;;;;;;;;;;2034315;29;20036;-57
2024/01/11 04:41:00;;;;;;;158.75;46.15;;;;;;;;;;2034352;29;20366;-57
2024/01/11 04:42:02;;;;;;;171.52;49.17;;;;;;;;;;2034394;29;20036;-57
2024/01/11 04:43:03;;;;;;;170.88;49.75;;;;;;;;;;2025440;29;20414;-57
2024/01/11 04:44:04;;;;;;;148.73;44.05;;;;;;;;;;2025945;29;20409;-57
2024/01/11 04:45:04;;;;;;;151.15;47.22;;;;;;;;;;2034252;29;20059;-57
2024/01/11 04:46:18;;;;;;;154.85;48.65;;;;;;;;;;2034195;29;20044;-57
2024/01/11 04:47:19;;;;;;;150.43;46.53;;;;;;;;;;2034303;29;20358;-57
2024/01/11 04:48:19;;;;;;;137.18;42.78;;;;;;;;;;2034159;29;20032;-57
2024/01/11 04:49:20;;;;;;;150.15;46.63;;;;;;;;;;2034181;29;20059;-57
2024/01/11 04:50:21;;;;;;;143.07;43.05;;;;;;;;;;2034296;29;20039;-57
2024/01/11 04:51:22;;;;;;;137.68;41.95;;;;;;;;;;2034122;29;20075;-57
2024/01/11 04:52:22;;;;;;;144.43;41.50;;;;;;;;;;2034150;29;20032;-57
2024/01/11 04:53:23;;;;;;;143.50;43.97;;;;;;;;;;2033864;29;20390;-57
2024/01/11 04:54:24;;;;;;;131.68;41.67;;;;;;;;;;2034132;29;20473;-57
2024/01/11 04:55:25;;;;;;;139.60;47.30;;;;;;;;;;2034277;29;20074;-57
2024/01/11 04:56:25;;;;;;;142.52;48.92;;;;;;;;;;2034243;29;20047;-57
2024/01/11 04:57:26;;;;;;;148.55;47.97;;;;;;;;;;2033759;29;20139;-57
2024/01/11 04:58:27;;;;;;;137.00;45.20;;;;;;;;;;2034101;29;20056;-57
2024/01/11 04:59:27;;;;;;;151.75;48.80;;;;;;;;;;2033987;29;20044;-57
2024/01/11 05:00:28;;;;;;;153.85;47.47;;;;;;;;;;2034168;29;20434;-57
2024/01/11 05:01:29;;;;;;;148.43;43.97;;;;;;;;;;2034019;29;20597;-57
2024/01/11 05:02:30;;;;;;;149.57;48.50;;;;;;;;;;2034122;29;20388;-58
2024/01/11 05:03:31;;;;;;;149.70;48.45;;;;;;;;;;2033715;29;20051;-57
2024/01/11 05:04:32;;;;;;;153.20;45.83;;;;;;;;;;2034132;29;20035;-57
2024/01/11 05:05:32;;;;;;;154.55;49.72;;;;;;;;;;2033879;29;20516;-57
2024/01/11 05:06:33;;;;;;;149.15;47.22;;;;;;;;;;2033975;29;20370;-57
2024/01/11 05:07:34;;;;;;;154.73;45.63;;;;;;;;;;2033976;29;20481;-57
2024/01/11 05:08:35;;;;;;;145.23;43.33;;;;;;;;;;2033259;29;20461;-57
2024/01/11 05:09:36;;;;;;;135.40;44.67;;;;;;;;;;2033264;29;20055;-57
2024/01/11 05:10:36;;;;;;;155.80;46.10;;;;;;;;;;2034029;29;20064;-57
2024/01/11 05:11:37;;;;;;;159.00;46.50;;;;;;;;;;2033952;29;20070;-57
2024/01/11 05:12:38;;;;;;;162.52;44.97;;;;;;;;;;2034248;29;20091;-57
2024/01/11 05:13:39;;;;;;;156.77;45.97;;;;;;;;;;2033649;29;20365;-57
2024/01/11 05:14:40;;;;;;;163.73;48.55;;;;;;;;;;2034121;29;20035;-57
2024/01/11 05:15:40;;;;;;;154.00;47.13;;;;;;;;;;2033568;29;20079;-57
2024/01/11 05:16:41;;;;;;;168.48;51.15;;;;;;;;;;2033946;29;20051;-57
2024/01/11 05:17:43;;;;;;;160.77;47.38;;;;;;;;;;2034047;29;20066;-57
2024/01/11 05:18:43;;;;;;;158.90;46.50;;;;;;;;;;2034015;29;20040;-57
2024/01/11 05:19:44;;;;;;;157.73;49.63;;;;;;;;;;2034071;29;20075;-57
2024/01/11 05:20:45;;;;;;;152.95;47.67;;;;;;;;;;2033892;29;20100;-57
2024/01/11 05:21:46;;;;;;;157.93;47.65;;;;;;;;;;2034047;29;20044;-57
2024/01/11 05:22:46;;;;;;;166.88;45.80;;;;;;;;;;2033751;29;20047;-57
2024/01/11 05:23:48;;;;;;;170.23;50.03;;;;;;;;;;2034059;29;20074;-57
2024/01/11 05:24:49;;;;;;;151.95;47.35;;;;;;;;;;2017867;29;20040;-57
2024/01/11 05:25:49;;;;;;;151.93;48.78;;;;;;;;;;2017526;29;20113;-57
2024/01/11 05:26:50;;;;;;;156.98;49.58;;;;;;;;;;2034019;29;20477;-57
2024/01/11 05:27:51;;;;;;;148.60;45.85;;;;;;;;;;2033688;29;20052;-57
2024/01/11 05:28:52;;;;;;;149.38;47.88;;;;;;;;;;2025502;29;20044;-57
2024/01/11 05:29:52;;;;;;;145.65;47.75;;;;;;;;;;2024772;29;20079;-59
2024/01/11 05:30:53;;;;;;;163.45;51.90;;;;;;;;;;2033712;29;20032;-57
2024/01/11 05:31:54;;;;;;;140.38;47.58;;;;;;;;;;2033618;29;20070;-57
2024/01/11 05:32:54;;;;;;;170.93;50.47;;;;;;;;;;2033779;29;20059;-57
2024/01/11 05:33:55;;;;;;;139.60;44.75;;;;;;;;;;2032980;29;20079;-57
2024/01/11 05:34:56;;;;;;;144.50;47.03;;;;;;;;;;2033895;29;20044;-58
2024/01/11 05:35:57;;;;;;;144.25;45.90;;;;;;;;;;2033644;29;20361;-57
2024/01/11 05:36:57;;;;;;;137.45;44.17;;;;;;;;;;2033275;29;20484;-57
2024/01/11 05:37:58;;;;;;;138.13;43.30;;;;;;;;;;2033476;29;20052;-57
2024/01/11 05:38:59;;;;;;;154.48;47.33;;;;;;;;;;2033502;29;20051;-57
2024/01/11 05:39:59;;;;;;;148.77;44.45;;;;;;;;;;2033894;29;20077;-57
2024/01/11 05:41:00;;;;;;;152.80;43.42;;;;;;;;;;2033599;29;20052;-57
2024/01/11 05:42:01;;;;;;;150.05;41.78;;;;;;;;;;2033867;29;20051;-57
2024/01/11 05:43:02;;;;;;;164.15;46.30;;;;;;;;;;2033033;29;20044;-57
2024/01/11 05:44:04;;;;;;;148.75;44.28;;;;;;;;;;2034028;29;20036;-57
2024/01/11 05:45:05;;;;;;;139.60;44.33;;;;;;;;;;2033743;29;20044;-57
2024/01/11 05:46:06;;;;;;;140.38;44.72;;;;;;;;;;2033827;29;20045;-57
2024/01/11 05:47:07;;;;;;;140.93;47.85;;;;;;;;;;2033957;29;20040;-57
2024/01/11 05:48:09;;;;;;;138.30;42.40;;;;;;;;;;2033927;29;20048;-57
2024/01/11 05:49:10;;;;;;;154.32;46.67;;;;;;;;;;2033965;29;20036;-57